sensor_id;sensor_type;location;lat;lon;timestamp;temperature;humidity
6429;DHT22;3247;48.946;10.220;2022-09-09T00:06:42;10.80;99.90
6429;DHT22;3247;48.946;10.220;2022-09-09T00:09:11;10.20;99.90
6429;DHT22;3247;48.946;10.220;2022-09-09T00:11:43;10.60;99.90
6429;DHT22;3247;48.946;10.220;2022-09-09T00:14:34;10.30;99.90
6429;DHT22;3247;48.946;10.220;2022-09-09T00:16:55;10.50;99.90
6429;DHT22;3247;48.946;10.220;2022-09-09T00:19:27;10.30;99.90
6429;DHT22;3247;48.946;10.220;2022-09-09T00:24:41;10.20;99.90
6429;DHT22;3247;48.946;10.220;2022-09-09T00:27:09;10.70;99.90
6429;DHT22;3247;48.946;10.220;2022-09-09T00:29:41;10.20;99.90
6429;DHT22;3247;48.946;10.220;2022-09-09T00:32:12;10.50;99.90
6429;DHT22;3247;48.946;10.220;2022-09-09T00:34:42;10.20;99.90
6429;DHT22;3247;48.946;10.220;2022-09-09T00:37:08;10.20;99.90
6429;DHT22;3247;48.946;10.220;2022-09-09T00:39:46;10.20;99.90
6429;DHT22;3247;48.946;10.220;2022-09-09T00:42:17;10.20;99.90
6429;DHT22;3247;48.946;10.220;2022-09-09T00:44:51;10.10;99.90
6429;DHT22;3247;48.946;10.220;2022-09-09T00:58:08;10.00;99.90
6429;DHT22;3247;48.946;10.220;2022-09-09T01:00:57;10.00;99.90
6429;DHT22;3247;48.946;10.220;2022-09-09T01:03:36;10.00;99.90
6429;DHT22;3247;48.946;10.220;2022-09-09T01:06:11;10.00;99.90
6429;DHT22;3247;48.946;10.220;2022-09-09T01:11:24;10.00;99.90
6429;DHT22;3247;48.946;10.220;2022-09-09T01:13:53;10.00;99.90
6429;DHT22;3247;48.946;10.220;2022-09-09T01:16:20;10.00;99.90
6429;DHT22;3247;48.946;10.220;2022-09-09T01:18:47;10.00;99.90
6429;DHT22;3247;48.946;10.220;2022-09-09T01:21:17;10.20;99.90
6429;DHT22;3247;48.946;10.220;2022-09-09T01:29:52;10.10;99.90
6429;DHT22;3247;48.946;10.220;2022-09-09T01:32:40;10.00;99.90
6429;DHT22;3247;48.946;10.220;2022-09-09T01:37:50;10.10;99.90
6429;DHT22;3247;48.946;10.220;2022-09-09T01:40:17;10.30;99.90
6429;DHT22;3247;48.946;10.220;2022-09-09T01:42:42;10.10;99.90
6429;DHT22;3247;48.946;10.220;2022-09-09T01:45:08;10.10;99.90
6429;DHT22;3247;48.946;10.220;2022-09-09T01:47:34;10.10;99.90
6429;DHT22;3247;48.946;10.220;2022-09-09T01:49:59;10.10;99.90
6429;DHT22;3247;48.946;10.220;2022-09-09T01:52:26;10.10;99.90
6429;DHT22;3247;48.946;10.220;2022-09-09T01:54:51;10.10;99.90
6429;DHT22;3247;48.946;10.220;2022-09-09T02:00:22;10.20;99.90
6429;DHT22;3247;48.946;10.220;2022-09-09T02:02:48;10.20;99.90
6429;DHT22;3247;48.946;10.220;2022-09-09T02:07:47;10.20;99.90
6429;DHT22;3247;48.946;10.220;2022-09-09T02:10:17;10.20;99.90
6429;DHT22;3247;48.946;10.220;2022-09-09T02:12:45;10.30;99.90
6429;DHT22;3247;48.946;10.220;2022-09-09T02:15:18;10.20;99.90
6429;DHT22;3247;48.946;10.220;2022-09-09T02:17:47;10.30;99.90
6429;DHT22;3247;48.946;10.220;2022-09-09T02:20:14;10.20;99.90
6429;DHT22;3247;48.946;10.220;2022-09-09T02:22:41;10.20;99.90
6429;DHT22;3247;48.946;10.220;2022-09-09T02:25:10;10.10;99.90
6429;DHT22;3247;48.946;10.220;2022-09-09T02:27:37;10.50;99.90
6429;DHT22;3247;48.946;10.220;2022-09-09T02:30:02;10.10;99.90
6429;DHT22;3247;48.946;10.220;2022-09-09T02:32:28;10.10;99.90
6429;DHT22;3247;48.946;10.220;2022-09-09T02:35:03;10.10;99.90
6429;DHT22;3247;48.946;10.220;2022-09-09T02:37:42;10.00;99.90
6429;DHT22;3247;48.946;10.220;2022-09-09T02:40:08;10.10;99.90
6429;DHT22;3247;48.946;10.220;2022-09-09T02:42:39;10.00;99.90
6429;DHT22;3247;48.946;10.220;2022-09-09T02:45:05;9.60;99.90
6429;DHT22;3247;48.946;10.220;2022-09-09T02:52:54;10.10;99.90
6429;DHT22;3247;48.946;10.220;2022-09-09T02:57:59;10.00;99.90
6429;DHT22;3247;48.946;10.220;2022-09-09T03:00:26;10.00;99.90
6429;DHT22;3247;48.946;10.220;2022-09-09T03:02:52;10.70;99.90
6429;DHT22;3247;48.946;10.220;2022-09-09T03:05:18;10.10;99.90
6429;DHT22;3247;48.946;10.220;2022-09-09T03:07:44;10.00;99.90
6429;DHT22;3247;48.946;10.220;2022-09-09T03:10:09;10.00;99.90
6429;DHT22;3247;48.946;10.220;2022-09-09T03:12:35;10.00;99.90
6429;DHT22;3247;48.946;10.220;2022-09-09T03:15:01;10.10;99.90
6429;DHT22;3247;48.946;10.220;2022-09-09T03:17:26;10.40;99.90
6429;DHT22;3247;48.946;10.220;2022-09-09T03:19:53;10.00;99.90
6429;DHT22;3247;48.946;10.220;2022-09-09T03:22:20;10.00;99.90
6429;DHT22;3247;48.946;10.220;2022-09-09T03:24:46;10.00;99.90
6429;DHT22;3247;48.946;10.220;2022-09-09T03:27:12;10.60;99.90
6429;DHT22;3247;48.946;10.220;2022-09-09T03:29:39;10.00;99.90
6429;DHT22;3247;48.946;10.220;2022-09-09T03:32:05;9.90;99.90
6429;DHT22;3247;48.946;10.220;2022-09-09T03:34:30;9.90;99.90
6429;DHT22;3247;48.946;10.220;2022-09-09T03:36:56;9.90;99.90
6429;DHT22;3247;48.946;10.220;2022-09-09T03:39:22;9.90;99.90
6429;DHT22;3247;48.946;10.220;2022-09-09T03:41:47;9.90;99.90
6429;DHT22;3247;48.946;10.220;2022-09-09T03:44:13;9.80;99.90
6429;DHT22;3247;48.946;10.220;2022-09-09T03:46:39;9.80;99.90
6429;DHT22;3247;48.946;10.220;2022-09-09T03:49:04;10.50;99.90
6429;DHT22;3247;48.946;10.220;2022-09-09T03:51:30;9.90;99.90
6429;DHT22;3247;48.946;10.220;2022-09-09T03:54:14;9.90;99.90
6429;DHT22;3247;48.946;10.220;2022-09-09T03:56:39;9.80;99.90
6429;DHT22;3247;48.946;10.220;2022-09-09T03:59:06;9.70;99.90
6429;DHT22;3247;48.946;10.220;2022-09-09T04:01:34;9.70;99.90
6429;DHT22;3247;48.946;10.220;2022-09-09T04:03:59;9.60;99.90
6429;DHT22;3247;48.946;10.220;2022-09-09T04:06:25;9.60;99.90
6429;DHT22;3247;48.946;10.220;2022-09-09T04:08:51;9.60;99.90
6429;DHT22;3247;48.946;10.220;2022-09-09T04:11:17;9.60;99.90
6429;DHT22;3247;48.946;10.220;2022-09-09T04:13:43;9.60;99.90
6429;DHT22;3247;48.946;10.220;2022-09-09T04:16:10;9.60;99.90
6429;DHT22;3247;48.946;10.220;2022-09-09T04:18:35;10.30;99.90
6429;DHT22;3247;48.946;10.220;2022-09-09T04:21:01;9.60;99.90
6429;DHT22;3247;48.946;10.220;2022-09-09T04:23:27;9.50;99.90
6429;DHT22;3247;48.946;10.220;2022-09-09T04:28:45;9.50;99.90
6429;DHT22;3247;48.946;10.220;2022-09-09T04:31:14;9.50;99.90
6429;DHT22;3247;48.946;10.220;2022-09-09T04:33:40;9.50;99.90
6429;DHT22;3247;48.946;10.220;2022-09-09T04:36:09;9.90;99.90
6429;DHT22;3247;48.946;10.220;2022-09-09T04:38:35;9.60;99.90
6429;DHT22;3247;48.946;10.220;2022-09-09T04:41:00;9.60;99.90
6429;DHT22;3247;48.946;10.220;2022-09-09T04:43:26;9.70;99.90
6429;DHT22;3247;48.946;10.220;2022-09-09T04:45:52;9.70;99.90
6429;DHT22;3247;48.946;10.220;2022-09-09T04:48:17;9.80;99.90
6429;DHT22;3247;48.946;10.220;2022-09-09T04:50:43;9.80;99.90
6429;DHT22;3247;48.946;10.220;2022-09-09T04:53:08;9.80;99.90
6429;DHT22;3247;48.946;10.220;2022-09-09T04:58:21;9.90;99.90
6429;DHT22;3247;48.946;10.220;2022-09-09T05:00:48;10.00;99.90
6429;DHT22;3247;48.946;10.220;2022-09-09T05:03:14;10.00;99.90
6429;DHT22;3247;48.946;10.220;2022-09-09T05:05:49;10.00;99.90
6429;DHT22;3247;48.946;10.220;2022-09-09T05:08:15;10.10;99.90
6429;DHT22;3247;48.946;10.220;2022-09-09T05:10:40;10.70;99.90
6429;DHT22;3247;48.946;10.220;2022-09-09T05:13:07;10.10;99.90
6429;DHT22;3247;48.946;10.220;2022-09-09T05:15:32;10.10;99.90
6429;DHT22;3247;48.946;10.220;2022-09-09T05:18:01;10.10;99.90
6429;DHT22;3247;48.946;10.220;2022-09-09T05:20:27;10.20;99.90
6429;DHT22;3247;48.946;10.220;2022-09-09T05:22:53;10.20;99.90
6429;DHT22;3247;48.946;10.220;2022-09-09T05:28:23;10.30;99.90
6429;DHT22;3247;48.946;10.220;2022-09-09T05:30:56;10.40;99.90
6429;DHT22;3247;48.946;10.220;2022-09-09T05:33:23;10.50;99.90
6429;DHT22;3247;48.946;10.220;2022-09-09T05:35:54;10.60;99.90
6429;DHT22;3247;48.946;10.220;2022-09-09T05:38:20;10.60;99.90
6429;DHT22;3247;48.946;10.220;2022-09-09T05:40:48;10.70;99.90
6429;DHT22;3247;48.946;10.220;2022-09-09T05:43:14;10.80;99.90
6429;DHT22;3247;48.946;10.220;2022-09-09T05:45:40;10.90;99.90
6429;DHT22;3247;48.946;10.220;2022-09-09T05:48:05;10.90;99.90
6429;DHT22;3247;48.946;10.220;2022-09-09T05:50:32;11.10;99.90
6429;DHT22;3247;48.946;10.220;2022-09-09T05:52:58;11.20;99.90
6429;DHT22;3247;48.946;10.220;2022-09-09T05:58:12;11.40;99.90
6429;DHT22;3247;48.946;10.220;2022-09-09T06:00:39;11.60;99.90
6429;DHT22;3247;48.946;10.220;2022-09-09T06:03:05;11.80;99.90
6429;DHT22;3247;48.946;10.220;2022-09-09T06:05:30;12.20;99.90
6429;DHT22;3247;48.946;10.220;2022-09-09T06:07:56;12.70;99.90
6429;DHT22;3247;48.946;10.220;2022-09-09T06:10:21;13.60;99.90
6429;DHT22;3247;48.946;10.220;2022-09-09T06:12:47;14.60;99.90
6429;DHT22;3247;48.946;10.220;2022-09-09T06:15:12;15.60;99.90
6429;DHT22;3247;48.946;10.220;2022-09-09T06:17:38;16.00;99.90
6429;DHT22;3247;48.946;10.220;2022-09-09T06:20:04;16.90;99.90
6429;DHT22;3247;48.946;10.220;2022-09-09T06:22:30;17.40;99.90
6429;DHT22;3247;48.946;10.220;2022-09-09T06:24:55;18.30;99.90
6429;DHT22;3247;48.946;10.220;2022-09-09T06:27:21;19.00;99.90
6429;DHT22;3247;48.946;10.220;2022-09-09T06:29:47;19.90;99.90
6429;DHT22;3247;48.946;10.220;2022-09-09T06:32:13;19.60;99.90
6429;DHT22;3247;48.946;10.220;2022-09-09T06:34:38;20.30;99.90
6429;DHT22;3247;48.946;10.220;2022-09-09T06:37:04;21.50;99.90
6429;DHT22;3247;48.946;10.220;2022-09-09T06:39:31;21.60;99.90
6429;DHT22;3247;48.946;10.220;2022-09-09T06:41:57;22.40;99.90
6429;DHT22;3247;48.946;10.220;2022-09-09T06:44:22;22.70;99.90
6429;DHT22;3247;48.946;10.220;2022-09-09T06:46:48;22.60;99.90
6429;DHT22;3247;48.946;10.220;2022-09-09T06:49:13;23.10;99.90
6429;DHT22;3247;48.946;10.220;2022-09-09T06:51:39;23.60;99.90
6429;DHT22;3247;48.946;10.220;2022-09-09T06:54:13;25.20;99.90
6429;DHT22;3247;48.946;10.220;2022-09-09T06:56:39;25.00;99.90
6429;DHT22;3247;48.946;10.220;2022-09-09T06:59:07;26.00;99.90
6429;DHT22;3247;48.946;10.220;2022-09-09T07:01:34;26.40;99.90
6429;DHT22;3247;48.946;10.220;2022-09-09T07:04:00;26.80;99.90
6429;DHT22;3247;48.946;10.220;2022-09-09T07:06:28;27.20;99.90
6429;DHT22;3247;48.946;10.220;2022-09-09T07:08:54;26.60;99.90
6429;DHT22;3247;48.946;10.220;2022-09-09T07:11:20;26.90;99.90
6429;DHT22;3247;48.946;10.220;2022-09-09T07:13:47;27.10;99.90
6429;DHT22;3247;48.946;10.220;2022-09-09T07:16:13;26.20;99.90
6429;DHT22;3247;48.946;10.220;2022-09-09T07:18:40;26.50;99.90
6429;DHT22;3247;48.946;10.220;2022-09-09T07:21:06;26.80;99.90
6429;DHT22;3247;48.946;10.220;2022-09-09T07:23:31;27.90;99.90
6429;DHT22;3247;48.946;10.220;2022-09-09T07:28:52;28.90;99.90
6429;DHT22;3247;48.946;10.220;2022-09-09T07:31:20;30.30;99.00
6429;DHT22;3247;48.946;10.220;2022-09-09T07:33:46;31.00;96.60
6429;DHT22;3247;48.946;10.220;2022-09-09T07:36:15;30.70;96.50
6429;DHT22;3247;48.946;10.220;2022-09-09T07:38:41;31.10;95.20
6429;DHT22;3247;48.946;10.220;2022-09-09T07:41:09;31.80;92.80
6429;DHT22;3247;48.946;10.220;2022-09-09T07:43:44;32.10;92.90
6429;DHT22;3247;48.946;10.220;2022-09-09T07:46:10;31.20;92.60
6429;DHT22;3247;48.946;10.220;2022-09-09T07:48:37;30.50;93.70
6429;DHT22;3247;48.946;10.220;2022-09-09T07:51:07;30.30;93.30
6429;DHT22;3247;48.946;10.220;2022-09-09T07:53:33;29.50;93.70
6429;DHT22;3247;48.946;10.220;2022-09-09T07:56:12;29.20;94.40
6429;DHT22;3247;48.946;10.220;2022-09-09T07:58:38;28.70;94.60
6429;DHT22;3247;48.946;10.220;2022-09-09T08:01:08;29.40;94.50
6429;DHT22;3247;48.946;10.220;2022-09-09T08:03:34;30.20;93.00
6429;DHT22;3247;48.946;10.220;2022-09-09T08:06:01;30.70;92.40
6429;DHT22;3247;48.946;10.220;2022-09-09T08:08:27;31.00;91.50
6429;DHT22;3247;48.946;10.220;2022-09-09T08:10:52;30.30;91.40
6429;DHT22;3247;48.946;10.220;2022-09-09T08:13:18;30.20;91.90
6429;DHT22;3247;48.946;10.220;2022-09-09T08:15:43;30.50;92.10
6429;DHT22;3247;48.946;10.220;2022-09-09T08:18:09;29.90;91.80
6429;DHT22;3247;48.946;10.220;2022-09-09T08:20:35;29.00;92.20
6429;DHT22;3247;48.946;10.220;2022-09-09T08:23:01;29.00;92.90
6429;DHT22;3247;48.946;10.220;2022-09-09T08:25:27;29.50;92.20
6429;DHT22;3247;48.946;10.220;2022-09-09T08:27:53;28.90;92.80
6429;DHT22;3247;48.946;10.220;2022-09-09T08:30:18;29.20;92.20
6429;DHT22;3247;48.946;10.220;2022-09-09T08:32:44;29.00;92.20
6429;DHT22;3247;48.946;10.220;2022-09-09T08:35:10;28.90;92.00
6429;DHT22;3247;48.946;10.220;2022-09-09T08:37:36;28.10;92.20
6429;DHT22;3247;48.946;10.220;2022-09-09T08:40:02;28.80;92.80
6429;DHT22;3247;48.946;10.220;2022-09-09T08:42:30;29.20;92.20
6429;DHT22;3247;48.946;10.220;2022-09-09T08:45:09;28.80;92.10
6429;DHT22;3247;48.946;10.220;2022-09-09T08:47:50;28.70;92.60
6429;DHT22;3247;48.946;10.220;2022-09-09T08:50:19;28.90;92.10
6429;DHT22;3247;48.946;10.220;2022-09-09T08:58:19;29.60;92.30
6429;DHT22;3247;48.946;10.220;2022-09-09T09:03:22;30.10;91.80
6429;DHT22;3247;48.946;10.220;2022-09-09T09:05:54;30.30;91.50
6429;DHT22;3247;48.946;10.220;2022-09-09T09:08:28;30.60;90.70
6429;DHT22;3247;48.946;10.220;2022-09-09T09:10:56;30.00;90.80
6429;DHT22;3247;48.946;10.220;2022-09-09T09:16:13;28.60;92.80
6429;DHT22;3247;48.946;10.220;2022-09-09T09:18:39;27.40;94.30
6429;DHT22;3247;48.946;10.220;2022-09-09T09:21:07;27.20;94.30
6429;DHT22;3247;48.946;10.220;2022-09-09T09:23:41;26.60;95.00
6429;DHT22;3247;48.946;10.220;2022-09-09T09:26:11;26.20;95.20
6429;DHT22;3247;48.946;10.220;2022-09-09T09:28:37;26.20;95.40
6429;DHT22;3247;48.946;10.220;2022-09-09T09:31:04;26.20;95.70
6429;DHT22;3247;48.946;10.220;2022-09-09T09:33:33;26.10;96.00
6429;DHT22;3247;48.946;10.220;2022-09-09T09:36:00;25.60;96.30
6429;DHT22;3247;48.946;10.220;2022-09-09T09:38:26;25.50;97.30
6429;DHT22;3247;48.946;10.220;2022-09-09T09:40:55;25.10;97.20
6429;DHT22;3247;48.946;10.220;2022-09-09T09:45:54;24.60;97.70
6429;DHT22;3247;48.946;10.220;2022-09-09T09:48:20;24.50;98.20
6429;DHT22;3247;48.946;10.220;2022-09-09T09:50:50;24.50;98.00
6429;DHT22;3247;48.946;10.220;2022-09-09T09:53:18;24.40;98.20
6429;DHT22;3247;48.946;10.220;2022-09-09T09:56:25;24.60;98.30
6429;DHT22;3247;48.946;10.220;2022-09-09T10:01:22;24.80;98.40
6429;DHT22;3247;48.946;10.220;2022-09-09T10:03:53;25.00;98.10
6429;DHT22;3247;48.946;10.220;2022-09-09T10:06:35;24.80;99.00
6429;DHT22;3247;48.946;10.220;2022-09-09T10:09:02;24.80;98.60
6429;DHT22;3247;48.946;10.220;2022-09-09T10:11:35;24.60;98.90
6429;DHT22;3247;48.946;10.220;2022-09-09T10:19:04;24.70;99.90
6429;DHT22;3247;48.946;10.220;2022-09-09T10:27:02;24.50;99.70
6429;DHT22;3247;48.946;10.220;2022-09-09T10:34:57;24.70;99.10
6429;DHT22;3247;48.946;10.220;2022-09-09T10:39:48;24.50;99.90
6429;DHT22;3247;48.946;10.220;2022-09-09T10:42:16;24.10;99.70
6429;DHT22;3247;48.946;10.220;2022-09-09T10:47:18;24.40;99.40
6429;DHT22;3247;48.946;10.220;2022-09-09T10:52:29;24.20;99.20
6429;DHT22;3247;48.946;10.220;2022-09-09T10:59:55;23.90;99.90
6429;DHT22;3247;48.946;10.220;2022-09-09T11:02:26;23.90;99.90
6429;DHT22;3247;48.946;10.220;2022-09-09T11:04:53;23.50;99.90
6429;DHT22;3247;48.946;10.220;2022-09-09T11:07:25;23.40;99.90
6429;DHT22;3247;48.946;10.220;2022-09-09T11:09:52;23.40;99.90
6429;DHT22;3247;48.946;10.220;2022-09-09T11:12:20;23.40;99.90
6429;DHT22;3247;48.946;10.220;2022-09-09T11:14:48;23.50;99.90
6429;DHT22;3247;48.946;10.220;2022-09-09T11:17:18;23.70;99.90
6429;DHT22;3247;48.946;10.220;2022-09-09T11:19:44;24.00;99.90
6429;DHT22;3247;48.946;10.220;2022-09-09T11:22:18;24.00;99.80
6429;DHT22;3247;48.946;10.220;2022-09-09T11:24:53;23.80;99.90
6429;DHT22;3247;48.946;10.220;2022-09-09T11:27:21;23.40;99.30
6429;DHT22;3247;48.946;10.220;2022-09-09T11:29:52;23.40;99.90
6429;DHT22;3247;48.946;10.220;2022-09-09T11:40:26;23.60;99.90
6429;DHT22;3247;48.946;10.220;2022-09-09T11:45:38;23.40;99.80
6429;DHT22;3247;48.946;10.220;2022-09-09T11:48:05;23.50;98.40
6429;DHT22;3247;48.946;10.220;2022-09-09T11:50:36;23.70;98.50
6429;DHT22;3247;48.946;10.220;2022-09-09T11:53:23;23.70;97.60
6429;DHT22;3247;48.946;10.220;2022-09-09T11:55:59;23.80;97.80
6429;DHT22;3247;48.946;10.220;2022-09-09T11:58:26;23.50;97.70
6429;DHT22;3247;48.946;10.220;2022-09-09T12:00:54;23.40;98.00
6429;DHT22;3247;48.946;10.220;2022-09-09T12:08:49;23.20;98.10
6429;DHT22;3247;48.946;10.220;2022-09-09T12:11:28;23.10;97.90
6429;DHT22;3247;48.946;10.220;2022-09-09T12:13:57;23.10;98.30
6429;DHT22;3247;48.946;10.220;2022-09-09T12:16:33;22.70;98.90
6429;DHT22;3247;48.946;10.220;2022-09-09T12:19:06;22.70;99.10
6429;DHT22;3247;48.946;10.220;2022-09-09T12:21:41;22.70;99.10
6429;DHT22;3247;48.946;10.220;2022-09-09T12:24:13;22.80;98.50
6429;DHT22;3247;48.946;10.220;2022-09-09T12:26:43;22.90;98.70
6429;DHT22;3247;48.946;10.220;2022-09-09T12:34:14;22.80;98.90
6429;DHT22;3247;48.946;10.220;2022-09-09T12:36:40;23.00;98.70
6429;DHT22;3247;48.946;10.220;2022-09-09T12:39:18;22.90;98.60
6429;DHT22;3247;48.946;10.220;2022-09-09T12:41:54;23.00;98.20
6429;DHT22;3247;48.946;10.220;2022-09-09T12:44:22;23.20;98.60
6429;DHT22;3247;48.946;10.220;2022-09-09T12:46:47;23.40;97.30
6429;DHT22;3247;48.946;10.220;2022-09-09T12:49:25;23.40;96.90
6429;DHT22;3247;48.946;10.220;2022-09-09T12:51:51;23.70;95.80
6429;DHT22;3247;48.946;10.220;2022-09-09T12:54:17;23.90;96.60
6429;DHT22;3247;48.946;10.220;2022-09-09T12:56:47;23.70;96.30
6429;DHT22;3247;48.946;10.220;2022-09-09T13:02:21;23.40;94.70
6429;DHT22;3247;48.946;10.220;2022-09-09T13:04:47;22.90;97.00
6429;DHT22;3247;48.946;10.220;2022-09-09T13:07:13;22.60;97.20
6429;DHT22;3247;48.946;10.220;2022-09-09T13:09:39;22.10;97.90
6429;DHT22;3247;48.946;10.220;2022-09-09T13:12:04;21.80;98.00
6429;DHT22;3247;48.946;10.220;2022-09-09T13:14:35;21.50;97.90
6429;DHT22;3247;48.946;10.220;2022-09-09T13:17:03;21.50;99.10
6429;DHT22;3247;48.946;10.220;2022-09-09T13:19:31;21.40;99.70
6429;DHT22;3247;48.946;10.220;2022-09-09T13:21:57;21.40;99.70
6429;DHT22;3247;48.946;10.220;2022-09-09T13:24:35;21.00;99.90
6429;DHT22;3247;48.946;10.220;2022-09-09T13:27:03;21.20;99.90
6429;DHT22;3247;48.946;10.220;2022-09-09T13:29:29;21.00;99.90
6429;DHT22;3247;48.946;10.220;2022-09-09T13:32:03;21.00;99.90
6429;DHT22;3247;48.946;10.220;2022-09-09T13:34:31;21.00;99.90
6429;DHT22;3247;48.946;10.220;2022-09-09T13:36:59;20.60;99.90
6429;DHT22;3247;48.946;10.220;2022-09-09T13:39:27;20.50;99.90
6429;DHT22;3247;48.946;10.220;2022-09-09T13:41:53;20.70;99.90
6429;DHT22;3247;48.946;10.220;2022-09-09T13:44:23;20.90;99.90
6429;DHT22;3247;48.946;10.220;2022-09-09T13:49:45;21.30;99.90
6429;DHT22;3247;48.946;10.220;2022-09-09T13:52:12;21.40;99.90
6429;DHT22;3247;48.946;10.220;2022-09-09T13:54:47;21.30;99.90
6429;DHT22;3247;48.946;10.220;2022-09-09T13:57:16;21.30;99.90
6429;DHT22;3247;48.946;10.220;2022-09-09T13:59:43;21.20;99.90
6429;DHT22;3247;48.946;10.220;2022-09-09T14:02:09;21.20;99.90
6429;DHT22;3247;48.946;10.220;2022-09-09T14:04:35;21.20;99.90
6429;DHT22;3247;48.946;10.220;2022-09-09T14:07:01;21.30;99.70
6429;DHT22;3247;48.946;10.220;2022-09-09T14:09:26;21.30;99.90
6429;DHT22;3247;48.946;10.220;2022-09-09T14:11:52;21.30;99.40
6429;DHT22;3247;48.946;10.220;2022-09-09T14:14:17;21.30;99.20
6429;DHT22;3247;48.946;10.220;2022-09-09T14:16:43;21.20;98.50
6429;DHT22;3247;48.946;10.220;2022-09-09T14:19:08;21.20;98.90
6429;DHT22;3247;48.946;10.220;2022-09-09T14:21:34;21.20;98.80
6429;DHT22;3247;48.946;10.220;2022-09-09T14:24:03;21.10;98.30
6429;DHT22;3247;48.946;10.220;2022-09-09T14:26:28;21.20;98.40
6429;DHT22;3247;48.946;10.220;2022-09-09T14:28:55;21.20;99.00
6429;DHT22;3247;48.946;10.220;2022-09-09T14:31:21;21.10;99.20
6429;DHT22;3247;48.946;10.220;2022-09-09T14:33:47;21.00;99.60
6429;DHT22;3247;48.946;10.220;2022-09-09T14:36:12;21.00;99.70
6429;DHT22;3247;48.946;10.220;2022-09-09T14:38:38;21.00;99.70
6429;DHT22;3247;48.946;10.220;2022-09-09T14:41:14;20.90;99.90
6429;DHT22;3247;48.946;10.220;2022-09-09T14:43:43;20.80;99.90
6429;DHT22;3247;48.946;10.220;2022-09-09T14:46:10;20.70;99.90
6429;DHT22;3247;48.946;10.220;2022-09-09T14:48:36;20.80;99.90
6429;DHT22;3247;48.946;10.220;2022-09-09T14:51:06;20.60;99.90
6429;DHT22;3247;48.946;10.220;2022-09-09T14:53:32;20.50;99.90
6429;DHT22;3247;48.946;10.220;2022-09-09T14:56:04;20.50;99.90
6429;DHT22;3247;48.946;10.220;2022-09-09T14:58:30;20.50;99.90
6429;DHT22;3247;48.946;10.220;2022-09-09T15:01:01;20.50;99.90
6429;DHT22;3247;48.946;10.220;2022-09-09T15:03:27;20.60;99.90
6429;DHT22;3247;48.946;10.220;2022-09-09T15:05:52;20.70;99.90
6429;DHT22;3247;48.946;10.220;2022-09-09T15:08:17;20.70;99.90
6429;DHT22;3247;48.946;10.220;2022-09-09T15:10:43;20.80;99.90
6429;DHT22;3247;48.946;10.220;2022-09-09T15:13:10;20.80;99.90
6429;DHT22;3247;48.946;10.220;2022-09-09T15:15:35;20.90;99.90
6429;DHT22;3247;48.946;10.220;2022-09-09T15:18:01;21.00;99.90
6429;DHT22;3247;48.946;10.220;2022-09-09T15:20:26;21.00;99.90
6429;DHT22;3247;48.946;10.220;2022-09-09T15:22:51;21.10;99.90
6429;DHT22;3247;48.946;10.220;2022-09-09T15:25:18;21.10;99.90
6429;DHT22;3247;48.946;10.220;2022-09-09T15:27:43;21.20;99.90
6429;DHT22;3247;48.946;10.220;2022-09-09T15:30:09;21.20;99.90
6429;DHT22;3247;48.946;10.220;2022-09-09T15:32:36;21.30;99.90
6429;DHT22;3247;48.946;10.220;2022-09-09T15:35:01;21.30;99.90
6429;DHT22;3247;48.946;10.220;2022-09-09T15:37:27;21.20;99.90
6429;DHT22;3247;48.946;10.220;2022-09-09T15:39:53;21.10;99.90
6429;DHT22;3247;48.946;10.220;2022-09-09T15:42:18;21.10;99.90
6429;DHT22;3247;48.946;10.220;2022-09-09T15:44:44;21.10;99.90
6429;DHT22;3247;48.946;10.220;2022-09-09T15:47:10;21.10;99.90
6429;DHT22;3247;48.946;10.220;2022-09-09T15:49:36;21.30;99.90
6429;DHT22;3247;48.946;10.220;2022-09-09T15:52:02;21.20;99.90
6429;DHT22;3247;48.946;10.220;2022-09-09T15:54:30;21.10;99.40
6429;DHT22;3247;48.946;10.220;2022-09-09T15:56:58;21.00;99.90
6429;DHT22;3247;48.946;10.220;2022-09-09T15:59:24;20.80;99.90
6429;DHT22;3247;48.946;10.220;2022-09-09T16:01:50;20.70;99.90
6429;DHT22;3247;48.946;10.220;2022-09-09T16:04:19;20.60;99.90
6429;DHT22;3247;48.946;10.220;2022-09-09T16:06:55;20.50;99.90
6429;DHT22;3247;48.946;10.220;2022-09-09T16:09:22;20.30;99.90
6429;DHT22;3247;48.946;10.220;2022-09-09T16:11:48;20.20;99.90
6429;DHT22;3247;48.946;10.220;2022-09-09T16:14:13;20.20;99.90
6429;DHT22;3247;48.946;10.220;2022-09-09T16:16:41;20.20;99.90
6429;DHT22;3247;48.946;10.220;2022-09-09T16:19:08;20.30;99.90
6429;DHT22;3247;48.946;10.220;2022-09-09T16:21:44;20.30;99.90
6429;DHT22;3247;48.946;10.220;2022-09-09T16:24:14;20.30;99.90
6429;DHT22;3247;48.946;10.220;2022-09-09T16:26:42;20.30;99.90
6429;DHT22;3247;48.946;10.220;2022-09-09T16:29:09;20.30;99.90
6429;DHT22;3247;48.946;10.220;2022-09-09T16:31:35;20.20;99.90
6429;DHT22;3247;48.946;10.220;2022-09-09T16:34:02;20.10;99.90
6429;DHT22;3247;48.946;10.220;2022-09-09T16:36:29;20.10;99.90
6429;DHT22;3247;48.946;10.220;2022-09-09T16:38:56;19.90;99.90
6429;DHT22;3247;48.946;10.220;2022-09-09T16:41:22;19.70;99.90
6429;DHT22;3247;48.946;10.220;2022-09-09T16:43:52;19.60;99.90
6429;DHT22;3247;48.946;10.220;2022-09-09T16:46:18;19.50;99.90
6429;DHT22;3247;48.946;10.220;2022-09-09T16:48:45;19.40;99.90
6429;DHT22;3247;48.946;10.220;2022-09-09T16:51:12;19.30;99.90
6429;DHT22;3247;48.946;10.220;2022-09-09T16:53:39;19.20;99.90
6429;DHT22;3247;48.946;10.220;2022-09-09T16:56:08;19.10;99.90
6429;DHT22;3247;48.946;10.220;2022-09-09T16:58:34;18.90;99.90
6429;DHT22;3247;48.946;10.220;2022-09-09T17:01:00;18.90;99.90
6429;DHT22;3247;48.946;10.220;2022-09-09T17:03:27;18.80;99.90
6429;DHT22;3247;48.946;10.220;2022-09-09T17:05:52;18.70;99.90
6429;DHT22;3247;48.946;10.220;2022-09-09T17:08:17;18.60;99.90
6429;DHT22;3247;48.946;10.220;2022-09-09T17:10:43;18.60;99.90
6429;DHT22;3247;48.946;10.220;2022-09-09T17:13:08;18.40;99.90
